createdAt,value
2022-08-04T00:00:16.866Z,978.42
2022-08-04T00:01:16.852Z,978.40
2022-08-04T00:02:16.722Z,978.41
2022-08-04T00:03:16.652Z,978.39
2022-08-04T00:04:16.581Z,978.42
2022-08-04T00:05:16.507Z,978.41
2022-08-04T00:06:16.433Z,978.42
2022-08-04T00:07:16.361Z,978.40
2022-08-04T00:08:16.285Z,978.42
2022-08-04T00:09:16.210Z,978.36
2022-08-04T00:10:16.141Z,978.34
2022-08-04T00:11:16.067Z,978.37
2022-08-04T00:12:15.995Z,978.37
2022-08-04T00:13:15.922Z,978.42
2022-08-04T00:14:15.844Z,978.46
2022-08-04T00:15:16.735Z,978.41
2022-08-04T00:16:15.701Z,978.43
2022-08-04T00:17:15.628Z,978.40
2022-08-04T00:18:15.558Z,978.41
2022-08-04T00:19:15.483Z,978.37
2022-08-04T00:20:15.412Z,978.43
2022-08-04T00:21:15.341Z,978.43
2022-08-04T00:22:15.262Z,978.43
2022-08-04T00:23:15.188Z,978.45
2022-08-04T00:24:15.115Z,978.44
2022-08-04T00:25:15.042Z,978.45
2022-08-04T00:26:14.973Z,978.41
2022-08-04T00:27:14.895Z,978.43
2022-08-04T00:28:14.826Z,978.43
2022-08-04T00:29:14.751Z,978.41
2022-08-04T00:30:14.683Z,978.41
2022-08-04T00:31:14.608Z,978.42
2022-08-04T00:32:14.528Z,978.43
2022-08-04T00:33:14.462Z,978.43
2022-08-04T00:34:14.386Z,978.46
2022-08-04T00:35:14.316Z,978.47
2022-08-04T00:36:14.242Z,978.47
2022-08-04T00:37:14.166Z,978.46
2022-08-04T00:38:14.091Z,978.46
2022-08-04T00:39:14.084Z,978.46
2022-08-04T00:40:13.951Z,978.45
2022-08-04T00:41:13.875Z,978.42
2022-08-04T00:42:13.797Z,978.43
2022-08-04T00:43:13.734Z,978.42
2022-08-04T00:44:13.651Z,978.43
2022-08-04T00:45:13.590Z,978.45
2022-08-04T00:46:17.772Z,978.42
2022-08-04T00:47:13.435Z,978.42
2022-08-04T00:48:13.362Z,978.39
2022-08-04T00:49:13.288Z,978.45
2022-08-04T00:50:13.254Z,978.44
2022-08-04T00:51:13.139Z,978.42
2022-08-04T00:52:32.578Z,978.46
2022-08-04T00:53:12.997Z,978.49
2022-08-04T00:54:12.923Z,978.50
2022-08-04T00:55:12.849Z,978.50
2022-08-04T00:56:12.776Z,978.52
2022-08-04T00:57:33.520Z,978.54
2022-08-04T00:58:12.632Z,978.53
2022-08-04T00:59:12.563Z,978.53
2022-08-04T01:00:12.486Z,978.56
2022-08-04T01:01:12.440Z,978.56
2022-08-04T01:02:12.345Z,978.56
2022-08-04T01:03:12.268Z,978.59
2022-08-04T01:04:12.199Z,978.60
2022-08-04T01:05:12.125Z,978.62
2022-08-04T01:06:12.048Z,978.61
2022-08-04T01:07:11.989Z,978.59
2022-08-04T01:08:11.897Z,978.59
2022-08-04T01:09:11.825Z,978.59
2022-08-04T01:10:17.021Z,978.55
2022-08-04T01:11:11.684Z,978.55
2022-08-04T01:12:11.606Z,978.55
2022-08-04T01:13:15.546Z,978.55
2022-08-04T01:14:11.459Z,978.51
2022-08-04T01:15:11.387Z,978.57
2022-08-04T01:16:11.331Z,978.56
2022-08-04T01:17:12.983Z,978.54
2022-08-04T01:18:11.168Z,978.53
2022-08-04T01:19:11.090Z,978.55
2022-08-04T01:20:11.016Z,978.51
2022-08-04T01:21:10.948Z,978.54
2022-08-04T01:22:10.869Z,978.50
2022-08-04T01:23:10.797Z,978.52
2022-08-04T01:24:10.723Z,978.50
2022-08-04T01:25:10.652Z,978.51
2022-08-04T01:26:43.538Z,978.55
2022-08-04T01:27:10.511Z,978.50
2022-08-04T01:28:10.431Z,978.46
2022-08-04T01:29:10.359Z,978.49
2022-08-04T01:30:10.282Z,978.54
2022-08-04T01:31:13.071Z,978.51
2022-08-04T01:32:10.143Z,978.46
2022-08-04T01:33:10.086Z,978.43
2022-08-04T01:34:09.992Z,978.44
2022-08-04T01:35:09.920Z,978.43
2022-08-04T01:36:09.857Z,978.44
2022-08-04T01:37:09.769Z,978.42
2022-08-04T01:38:20.111Z,978.43
2022-08-04T01:39:09.666Z,978.45
2022-08-04T01:40:09.548Z,978.47
2022-08-04T01:41:09.479Z,978.42
2022-08-04T01:42:09.709Z,978.41
2022-08-04T01:43:09.329Z,978.42
2022-08-04T01:44:09.258Z,978.41
2022-08-04T01:45:09.182Z,978.41
2022-08-04T01:46:09.107Z,978.39
2022-08-04T01:47:09.031Z,978.40
2022-08-04T01:48:08.957Z,978.35
2022-08-04T01:49:08.887Z,978.41
2022-08-04T01:50:08.810Z,978.43
2022-08-04T01:51:08.736Z,978.40
2022-08-04T01:52:08.666Z,978.41
2022-08-04T01:53:08.593Z,978.42
2022-08-04T01:54:08.516Z,978.38
2022-08-04T01:55:08.446Z,978.40
2022-08-04T01:56:08.371Z,978.38
2022-08-04T01:57:38.576Z,978.39
2022-08-04T01:58:08.227Z,978.38
2022-08-04T01:59:08.153Z,978.36
2022-08-04T02:00:08.075Z,978.37
2022-08-04T02:01:08.569Z,978.37
2022-08-04T02:02:08.086Z,978.35
2022-08-04T02:03:07.859Z,978.35
2022-08-04T02:04:18.158Z,978.35
2022-08-04T02:05:07.703Z,978.35
2022-08-04T02:06:07.626Z,978.32
2022-08-04T02:07:07.552Z,978.35
2022-08-04T02:08:07.483Z,978.29
2022-08-04T02:09:07.407Z,978.32
2022-08-04T02:10:07.333Z,978.29
2022-08-04T02:11:07.260Z,978.30
2022-08-04T02:12:15.903Z,978.32
2022-08-04T02:13:07.118Z,978.34
2022-08-04T02:14:14.216Z,978.37
2022-08-04T02:16:10.887Z,978.38
2022-08-04T02:17:10.795Z,978.37
2022-08-04T02:19:14.954Z,978.40
2022-08-04T02:20:14.536Z,978.36
2022-08-04T02:21:14.466Z,978.39
2022-08-04T02:22:14.395Z,978.37
2022-08-04T02:23:14.313Z,978.35
2022-08-04T02:24:14.248Z,978.36
2022-08-04T02:25:14.169Z,978.35
2022-08-04T02:26:19.201Z,978.36
2022-08-04T02:27:14.023Z,978.37
2022-08-04T02:28:13.942Z,978.33
2022-08-04T02:29:13.869Z,978.36
2022-08-04T02:30:13.798Z,978.38
2022-08-04T02:31:13.721Z,978.37
2022-08-04T02:32:13.643Z,978.39
2022-08-04T02:33:13.571Z,978.36
2022-08-04T02:34:13.502Z,978.35
2022-08-04T02:35:13.428Z,978.37
2022-08-04T02:36:13.361Z,978.33
2022-08-04T02:37:13.312Z,978.39
2022-08-04T02:38:13.205Z,978.36
2022-08-04T02:39:13.162Z,978.35
2022-08-04T02:40:13.053Z,978.32
2022-08-04T02:41:12.983Z,978.31
2022-08-04T02:42:12.905Z,978.29
2022-08-04T02:43:12.831Z,978.34
2022-08-04T02:44:12.758Z,978.31
2022-08-04T02:45:12.684Z,978.29
2022-08-04T02:46:17.686Z,978.30
2022-08-04T02:47:12.596Z,978.30
2022-08-04T02:48:31.140Z,978.27
2022-08-04T02:49:12.388Z,978.27
2022-08-04T02:50:12.313Z,978.27
2022-08-04T02:51:12.238Z,978.29
2022-08-04T02:52:12.162Z,978.26
2022-08-04T02:53:12.085Z,978.26
2022-08-04T02:54:12.023Z,978.26
2022-08-04T02:55:11.937Z,978.23
2022-08-04T02:56:11.864Z,978.24
2022-08-04T02:57:11.792Z,978.20
2022-08-04T02:58:11.717Z,978.21
2022-08-04T02:59:11.643Z,978.21
2022-08-04T03:00:11.568Z,978.21
2022-08-04T03:01:11.532Z,978.21
2022-08-04T03:02:11.420Z,978.20
2022-08-04T03:03:12.876Z,978.20
2022-08-04T03:04:11.271Z,978.22
2022-08-04T03:05:11.202Z,978.25
2022-08-04T03:06:11.125Z,978.20
2022-08-04T03:07:14.511Z,978.20
2022-08-04T03:08:10.976Z,978.23
2022-08-04T03:09:10.903Z,978.22
2022-08-04T03:10:10.826Z,978.20
2022-08-04T03:11:10.756Z,978.22
2022-08-04T03:12:10.680Z,978.20
2022-08-04T03:13:10.601Z,978.19
2022-08-04T03:14:10.641Z,978.18
2022-08-04T03:15:10.460Z,978.16
2022-08-04T03:16:10.382Z,978.15
2022-08-04T03:17:10.309Z,978.16
2022-08-04T03:18:10.231Z,978.10
2022-08-04T03:19:10.166Z,978.08
2022-08-04T03:20:10.082Z,978.08
2022-08-04T03:21:10.016Z,978.09
2022-08-04T03:22:09.936Z,978.08
2022-08-04T03:23:14.002Z,978.13
2022-08-04T03:24:09.786Z,978.11
2022-08-04T03:25:09.716Z,978.14
2022-08-04T03:26:09.641Z,978.12
2022-08-04T03:27:09.564Z,978.12
2022-08-04T03:28:09.491Z,978.14
2022-08-04T03:29:09.419Z,978.12
2022-08-04T03:30:09.345Z,978.14
2022-08-04T03:31:09.269Z,978.13
2022-08-04T03:32:09.194Z,978.14
2022-08-04T03:33:09.117Z,978.13
2022-08-04T03:34:09.048Z,978.11
2022-08-04T03:35:08.968Z,978.14
2022-08-04T03:36:08.895Z,978.16
2022-08-04T03:37:08.821Z,978.16
2022-08-04T03:38:08.746Z,978.15
2022-08-04T03:39:08.694Z,978.16
2022-08-04T03:40:08.962Z,978.16
2022-08-04T03:41:08.526Z,978.16
2022-08-04T03:42:08.491Z,978.19
2022-08-04T03:43:08.376Z,978.16
2022-08-04T03:44:08.300Z,978.18
2022-08-04T03:45:23.252Z,978.18
2022-08-04T03:46:08.155Z,978.19
2022-08-04T03:47:08.141Z,978.17
2022-08-04T03:48:08.009Z,978.17
2022-08-04T03:49:07.932Z,978.19
2022-08-04T03:50:07.857Z,978.17
2022-08-04T03:51:07.778Z,978.15
2022-08-04T03:52:07.703Z,978.17
2022-08-04T03:53:07.630Z,978.16
2022-08-04T03:54:07.554Z,978.16
2022-08-04T03:55:07.482Z,978.15
2022-08-04T03:56:07.409Z,978.12
2022-08-04T03:57:07.331Z,978.12
2022-08-04T03:58:07.255Z,978.15
2022-08-04T03:59:07.187Z,978.17
2022-08-04T04:00:07.111Z,978.20
2022-08-04T04:01:07.041Z,978.18
2022-08-04T04:02:07.149Z,978.18
2022-08-04T04:03:06.886Z,978.18
2022-08-04T04:04:06.817Z,978.18
2022-08-04T04:05:06.735Z,978.19
2022-08-04T04:06:06.667Z,978.22
2022-08-04T04:07:06.587Z,978.21
2022-08-04T04:08:08.657Z,978.23
2022-08-04T04:09:06.440Z,978.22
2022-08-04T04:10:07.470Z,978.22
2022-08-04T04:11:06.296Z,978.22
2022-08-04T04:12:06.213Z,978.21
2022-08-04T04:13:06.214Z,978.27
2022-08-04T04:14:06.066Z,978.26
2022-08-04T04:15:05.990Z,978.22
2022-08-04T04:16:05.922Z,978.26
2022-08-04T04:17:05.846Z,978.24
2022-08-04T04:18:05.768Z,978.24
2022-08-04T04:19:05.696Z,978.23
2022-08-04T04:20:05.617Z,978.26
2022-08-04T04:21:05.545Z,978.30
2022-08-04T04:22:05.468Z,978.30
2022-08-04T04:23:05.401Z,978.32
2022-08-04T04:24:05.326Z,978.33
2022-08-04T04:25:05.246Z,978.32
2022-08-04T04:26:05.172Z,978.35
2022-08-04T04:27:05.102Z,978.36
2022-08-04T04:28:44.890Z,978.34
2022-08-04T04:29:04.949Z,978.32
2022-08-04T04:30:04.877Z,978.32
2022-08-04T04:31:04.803Z,978.33
2022-08-04T04:32:04.732Z,978.35
2022-08-04T04:33:04.653Z,978.34
2022-08-04T04:34:04.575Z,978.35
2022-08-04T04:35:04.500Z,978.37
2022-08-04T04:36:04.431Z,978.35
2022-08-04T04:37:04.350Z,978.35
2022-08-04T04:38:04.276Z,978.35
2022-08-04T04:39:04.276Z,978.33
2022-08-04T04:40:04.167Z,978.34
2022-08-04T04:41:04.055Z,978.34
2022-08-04T04:42:03.982Z,978.35
2022-08-04T04:43:03.904Z,978.36
2022-08-04T04:44:03.834Z,978.36
2022-08-04T04:45:03.757Z,978.35
2022-08-04T04:46:03.685Z,978.32
2022-08-04T04:47:03.611Z,978.33
2022-08-04T04:48:09.047Z,978.33
2022-08-04T04:49:03.465Z,978.36
2022-08-04T04:50:03.384Z,978.32
2022-08-04T04:51:03.312Z,978.34
2022-08-04T04:52:03.238Z,978.33
2022-08-04T04:53:03.165Z,978.35
2022-08-04T04:54:03.090Z,978.33
2022-08-04T04:55:03.012Z,978.33
2022-08-04T04:56:02.936Z,978.38
2022-08-04T04:57:02.867Z,978.40
2022-08-04T04:58:02.793Z,978.39
2022-08-04T04:59:02.723Z,978.40
2022-08-04T05:00:02.637Z,978.43
2022-08-04T05:01:02.565Z,978.44
2022-08-04T05:02:02.498Z,978.41
2022-08-04T05:03:07.283Z,978.45
2022-08-04T05:04:02.344Z,978.43
2022-08-04T05:05:02.265Z,978.40
2022-08-04T05:06:02.195Z,978.43
2022-08-04T05:07:02.118Z,978.46
2022-08-04T05:08:02.048Z,978.40
2022-08-04T05:09:01.974Z,978.43
2022-08-04T05:10:01.896Z,978.41
2022-08-04T05:11:01.834Z,978.40
2022-08-04T05:12:02.481Z,978.41
2022-08-04T05:14:36.573Z,978.44
2022-08-04T05:14:38.595Z,978.45
2022-08-04T05:15:01.530Z,978.44
2022-08-04T05:16:01.457Z,978.42
2022-08-04T05:17:01.380Z,978.42
2022-08-04T05:18:01.303Z,978.39
2022-08-04T05:19:01.229Z,978.44
2022-08-04T05:20:01.226Z,978.38
2022-08-04T05:21:01.081Z,978.40
2022-08-04T05:22:01.003Z,978.41
2022-08-04T05:23:00.934Z,978.38
2022-08-04T05:24:00.858Z,978.41
2022-08-04T05:25:00.798Z,978.42
2022-08-04T05:26:00.877Z,978.41
2022-08-04T05:27:00.635Z,978.43
2022-08-04T05:28:00.568Z,978.43
2022-08-04T05:29:00.484Z,978.41
2022-08-04T05:30:00.420Z,978.45
2022-08-04T05:31:00.338Z,978.42
2022-08-04T05:32:00.270Z,978.41
2022-08-04T05:33:00.314Z,978.41
2022-08-04T05:34:00.118Z,978.41
2022-08-04T05:35:00.037Z,978.45
2022-08-04T05:36:20.647Z,978.42
2022-08-04T05:36:59.891Z,978.42
2022-08-04T05:38:01.126Z,978.42
2022-08-04T05:38:59.998Z,978.44
2022-08-04T05:39:59.670Z,978.47
2022-08-04T05:40:59.621Z,978.46
2022-08-04T05:42:04.319Z,978.48
2022-08-04T05:42:59.464Z,978.46
2022-08-04T05:43:59.375Z,978.49
2022-08-04T05:44:59.302Z,978.48
2022-08-04T05:45:59.227Z,978.46
2022-08-04T05:46:59.152Z,978.46
2022-08-04T05:47:59.079Z,978.46
2022-08-04T05:48:59.003Z,978.49
2022-08-04T05:50:02.101Z,978.47
2022-08-04T05:51:01.024Z,978.48
2022-08-04T05:51:58.785Z,978.50
2022-08-04T05:53:01.461Z,978.49
2022-08-04T05:53:58.632Z,978.49
2022-08-04T05:54:58.558Z,978.50
2022-08-04T05:55:59.953Z,978.52
2022-08-04T05:56:58.410Z,978.48
2022-08-04T05:57:58.340Z,978.46
2022-08-04T05:58:58.265Z,978.46
2022-08-04T05:59:58.193Z,978.45
2022-08-04T06:00:58.121Z,978.46
2022-08-04T06:01:58.332Z,978.45
2022-08-04T06:02:57.967Z,978.46
2022-08-04T06:03:57.894Z,978.43
2022-08-04T06:04:57.822Z,978.41
2022-08-04T06:05:57.752Z,978.40
2022-08-04T06:06:57.674Z,978.40
2022-08-04T06:08:12.542Z,978.43
2022-08-04T06:08:57.529Z,978.42
2022-08-04T06:09:57.457Z,978.44
2022-08-04T06:10:57.381Z,978.43
2022-08-04T06:12:03.350Z,978.46
2022-08-04T06:12:57.318Z,978.47
2022-08-04T06:13:57.161Z,978.49
2022-08-04T06:14:59.402Z,978.48
2022-08-04T06:15:57.013Z,978.49
2022-08-04T06:16:56.939Z,978.48
2022-08-04T06:19:56.400Z,978.47
2022-08-04T06:20:01.259Z,978.53
2022-08-04T06:20:19.985Z,978.48
2022-08-04T06:20:56.640Z,978.50
2022-08-04T06:21:56.575Z,978.46
2022-08-04T06:22:56.492Z,978.48
2022-08-04T06:24:02.362Z,978.49
2022-08-04T06:24:56.347Z,978.46
2022-08-04T06:25:56.275Z,978.44
2022-08-04T06:26:56.199Z,978.46
2022-08-04T06:27:56.126Z,978.47
2022-08-04T06:28:56.056Z,978.45
2022-08-04T06:29:55.981Z,978.44
2022-08-04T06:30:55.912Z,978.46
2022-08-04T06:32:30.375Z,978.44
2022-08-04T06:33:04.180Z,978.44
2022-08-04T06:33:55.683Z,978.44
2022-08-04T06:34:55.648Z,978.47
2022-08-04T06:35:55.545Z,978.44
2022-08-04T06:36:55.470Z,978.48
2022-08-04T06:38:00.425Z,978.45
2022-08-04T06:38:58.726Z,978.47
2022-08-04T06:39:55.245Z,978.43
2022-08-04T06:40:55.179Z,978.47
2022-08-04T06:42:22.196Z,978.46
2022-08-04T06:42:55.027Z,978.43
2022-08-04T06:43:54.951Z,978.48
2022-08-04T06:44:54.882Z,978.48
2022-08-04T06:45:54.811Z,978.51
2022-08-04T06:46:54.735Z,978.53
2022-08-04T06:47:54.667Z,978.47
2022-08-04T06:48:54.589Z,978.49
2022-08-04T06:51:25.112Z,978.48
2022-08-04T06:51:29.426Z,978.47
2022-08-04T06:51:54.368Z,978.42
2022-08-04T06:52:54.299Z,978.46
2022-08-04T06:53:54.227Z,978.47
2022-08-04T06:54:54.152Z,978.48
2022-08-04T06:55:54.076Z,978.48
2022-08-04T06:56:54.001Z,978.48
2022-08-04T06:57:53.932Z,978.46
2022-08-04T06:58:53.863Z,978.49
2022-08-04T06:59:53.788Z,978.48
2022-08-04T07:00:53.717Z,978.50
2022-08-04T07:01:53.698Z,978.47
2022-08-04T07:02:53.568Z,978.49
2022-08-04T07:03:53.495Z,978.48
2022-08-04T07:04:53.421Z,978.45
2022-08-04T07:05:53.352Z,978.47
2022-08-04T07:06:53.272Z,978.44
2022-08-04T07:07:58.023Z,978.41
2022-08-04T07:08:53.130Z,978.44
2022-08-04T07:09:53.060Z,978.43
2022-08-04T07:10:52.980Z,978.42
2022-08-04T07:11:52.907Z,978.43
2022-08-04T07:12:52.958Z,978.41
2022-08-04T07:13:52.763Z,978.44
2022-08-04T07:14:52.693Z,978.46
2022-08-04T07:15:52.622Z,978.44
2022-08-04T07:16:52.547Z,978.46
2022-08-04T07:17:52.646Z,978.45
2022-08-04T07:18:52.411Z,978.40
2022-08-04T07:19:52.325Z,978.44
2022-08-04T07:20:52.256Z,978.43
2022-08-04T07:22:24.418Z,978.39
2022-08-04T07:22:52.112Z,978.41
2022-08-04T07:23:52.039Z,978.43
2022-08-04T07:24:51.970Z,978.41
2022-08-04T07:26:12.030Z,978.43
2022-08-04T07:26:51.822Z,978.41
2022-08-04T07:27:51.745Z,978.38
2022-08-04T07:28:51.674Z,978.38
2022-08-04T07:29:51.598Z,978.37
2022-08-04T07:30:51.529Z,978.39
2022-08-04T07:31:51.455Z,978.32
2022-08-04T07:32:51.383Z,978.38
2022-08-04T07:34:17.742Z,978.36
2022-08-04T07:34:51.242Z,978.35
2022-08-04T07:36:04.693Z,978.40
2022-08-04T07:36:52.771Z,978.36
2022-08-04T07:37:51.021Z,978.37
2022-08-04T07:38:51.769Z,978.39
2022-08-04T07:39:50.952Z,978.44
2022-08-04T07:40:50.807Z,978.40
2022-08-04T07:41:50.729Z,978.37
2022-08-04T07:42:50.661Z,978.42
2022-08-04T07:43:50.592Z,978.43
2022-08-04T07:44:50.519Z,978.44
2022-08-04T07:45:50.443Z,978.43
2022-08-04T07:46:50.370Z,978.42
2022-08-04T07:48:05.285Z,978.43
2022-08-04T07:48:50.225Z,978.44
2022-08-04T07:49:55.002Z,978.43
2022-08-04T07:50:50.085Z,978.45
2022-08-04T07:51:50.010Z,978.41
2022-08-04T07:53:09.043Z,978.41
2022-08-04T07:53:55.558Z,978.41
2022-08-04T07:54:49.795Z,978.40
2022-08-04T07:55:49.726Z,978.41
2022-08-04T07:56:49.648Z,978.41
2022-08-04T07:57:49.581Z,978.43
2022-08-04T07:58:49.837Z,978.41
2022-08-04T07:59:50.380Z,978.42
2022-08-04T08:00:49.361Z,978.40
2022-08-04T08:01:49.290Z,978.39
2022-08-04T08:02:49.222Z,978.38
2022-08-04T08:03:49.241Z,978.36
2022-08-04T08:04:49.075Z,978.37
2022-08-04T08:05:54.541Z,978.35
2022-08-04T08:06:48.944Z,978.35
2022-08-04T08:07:50.614Z,978.36
2022-08-04T08:08:48.785Z,978.35
2022-08-04T08:09:48.722Z,978.38
2022-08-04T08:10:48.644Z,978.38
2022-08-04T08:12:36.466Z,978.36
2022-08-04T08:12:51.569Z,978.39
2022-08-04T08:13:48.433Z,978.33
2022-08-04T08:14:55.538Z,978.34
2022-08-04T08:16:52.232Z,978.34
2022-08-04T08:17:58.286Z,978.32
2022-08-04T08:19:56.022Z,978.33
2022-08-04T08:20:55.948Z,978.32
2022-08-04T08:21:59.809Z,978.34
2022-08-04T08:22:55.801Z,978.28
2022-08-04T08:23:55.726Z,978.27
2022-08-04T08:24:55.660Z,978.30
2022-08-04T08:25:55.590Z,978.33
2022-08-04T08:26:55.512Z,978.27
2022-08-04T08:27:56.125Z,978.24
2022-08-04T08:28:55.369Z,978.28
2022-08-04T08:29:55.296Z,978.28
2022-08-04T08:30:55.225Z,978.26
2022-08-04T08:31:58.419Z,978.28
2022-08-04T08:32:55.086Z,978.28
2022-08-04T08:33:55.012Z,978.27
2022-08-04T08:34:54.943Z,978.25
2022-08-04T08:35:55.101Z,978.29
2022-08-04T08:36:54.796Z,978.30
2022-08-04T08:37:54.736Z,978.29
2022-08-04T08:38:54.696Z,978.34
2022-08-04T08:39:54.590Z,978.31
2022-08-04T08:40:54.511Z,978.33
2022-08-04T08:41:54.439Z,978.30
2022-08-04T08:42:54.377Z,978.32
2022-08-04T08:44:06.476Z,978.34
2022-08-04T08:44:57.772Z,978.34
2022-08-04T08:45:54.156Z,978.34
2022-08-04T08:46:54.089Z,978.34
2022-08-04T08:48:04.782Z,978.35
2022-08-04T08:48:53.943Z,978.33
2022-08-04T08:50:01.921Z,978.38
2022-08-04T08:50:53.811Z,978.34
2022-08-04T08:51:53.735Z,978.38
2022-08-04T08:53:01.426Z,978.35
2022-08-04T08:53:53.587Z,978.37
2022-08-04T08:54:53.521Z,978.36
2022-08-04T08:55:53.447Z,978.36
2022-08-04T08:56:53.380Z,978.42
2022-08-04T08:58:00.185Z,978.35
2022-08-04T08:58:53.232Z,978.34
2022-08-04T08:59:53.164Z,978.34
2022-08-04T09:00:53.092Z,978.34
2022-08-04T09:01:53.124Z,978.36
2022-08-04T09:03:04.391Z,978.37
2022-08-04T09:03:52.877Z,978.34
2022-08-04T09:04:52.811Z,978.37
2022-08-04T09:05:52.740Z,978.33
2022-08-04T09:06:52.669Z,978.35
2022-08-04T09:07:52.590Z,978.33
2022-08-04T09:08:52.528Z,978.37
2022-08-04T09:09:52.452Z,978.32
2022-08-04T09:10:52.379Z,978.34
2022-08-04T09:11:52.311Z,978.32
2022-08-04T09:12:52.242Z,978.31
2022-08-04T09:13:52.174Z,978.30
2022-08-04T09:14:52.103Z,978.33
2022-08-04T09:15:54.283Z,978.32
2022-08-04T09:16:51.963Z,978.31
2022-08-04T09:17:51.886Z,978.31
2022-08-04T09:18:51.816Z,978.29
2022-08-04T09:19:51.740Z,978.33
2022-08-04T09:20:51.671Z,978.34
2022-08-04T09:21:51.606Z,978.33
2022-08-04T09:22:51.536Z,978.31
2022-08-04T09:23:51.461Z,978.30
2022-08-04T09:24:51.388Z,978.31
2022-08-04T09:25:51.316Z,978.27
2022-08-04T09:26:51.248Z,978.27
2022-08-04T09:27:51.181Z,978.29
2022-08-04T09:28:54.028Z,978.27
2022-08-04T09:29:51.036Z,978.24
2022-08-04T09:30:50.964Z,978.25
2022-08-04T09:32:06.105Z,978.23
2022-08-04T09:32:50.829Z,978.23
2022-08-04T09:33:50.761Z,978.19
2022-08-04T09:35:03.428Z,978.22
2022-08-04T09:35:50.618Z,978.23
2022-08-04T09:36:50.556Z,978.27
2022-08-04T09:37:50.475Z,978.27
2022-08-04T09:38:52.509Z,978.31
2022-08-04T09:39:51.990Z,978.27
2022-08-04T09:40:53.054Z,978.22
2022-08-04T09:41:52.557Z,978.26
2022-08-04T09:42:50.123Z,978.25
2022-08-04T09:43:59.063Z,978.25
2022-08-04T09:44:56.230Z,978.24
2022-08-04T09:45:50.566Z,978.25
2022-08-04T09:46:49.840Z,978.26
2022-08-04T09:47:49.773Z,978.26
2022-08-04T09:48:49.699Z,978.24
2022-08-04T09:49:49.628Z,978.25
2022-08-04T09:50:50.640Z,978.21
2022-08-04T09:51:58.695Z,978.23
2022-08-04T09:52:49.421Z,978.22
2022-08-04T09:53:49.346Z,978.19
2022-08-04T09:54:49.277Z,978.15
2022-08-04T09:55:54.368Z,978.12
2022-08-04T09:56:49.140Z,978.11
2022-08-04T09:57:49.062Z,978.13
2022-08-04T09:58:48.996Z,978.12
2022-08-04T09:59:48.927Z,978.15
2022-08-04T10:00:48.855Z,978.09
2022-08-04T10:01:48.795Z,978.08
2022-08-04T10:02:48.765Z,978.03
2022-08-04T10:03:48.647Z,978.05
2022-08-04T10:04:48.580Z,978.03
2022-08-04T10:05:48.509Z,978.00
2022-08-04T10:06:48.434Z,978.02
2022-08-04T10:07:59.509Z,977.97
2022-08-04T10:08:48.298Z,978.02
2022-08-04T10:09:48.225Z,977.97
2022-08-04T10:10:48.155Z,977.98
2022-08-04T10:11:56.134Z,977.98
2022-08-04T10:12:48.025Z,978.01
2022-08-04T10:13:47.944Z,977.96
2022-08-04T10:14:47.881Z,977.91
2022-08-04T10:15:47.816Z,977.95
2022-08-04T10:16:47.740Z,977.90
2022-08-04T10:17:51.818Z,977.93
2022-08-04T10:18:47.599Z,977.92
2022-08-04T10:19:47.529Z,977.91
2022-08-04T10:20:52.919Z,977.94
2022-08-04T10:21:59.139Z,977.92
2022-08-04T10:23:09.312Z,977.90
2022-08-04T10:23:56.274Z,977.91
2022-08-04T10:24:47.198Z,977.87
2022-08-04T10:26:05.738Z,977.81
2022-08-04T10:26:47.043Z,977.90
2022-08-04T10:27:46.970Z,977.79
2022-08-04T10:28:46.901Z,977.82
2022-08-04T10:29:46.831Z,977.79
2022-08-04T10:30:46.758Z,977.82
2022-08-04T10:31:46.698Z,977.80
2022-08-04T10:32:46.620Z,977.82
2022-08-04T10:33:46.552Z,977.83
2022-08-04T10:34:46.485Z,977.78
2022-08-04T10:35:46.418Z,977.81
2022-08-04T10:36:46.341Z,977.80
2022-08-04T10:37:59.902Z,977.76
2022-08-04T10:38:46.203Z,977.72
2022-08-04T10:39:46.212Z,977.75
2022-08-04T10:40:46.090Z,977.75
2022-08-04T10:41:45.996Z,977.73
2022-08-04T10:42:45.925Z,977.64
2022-08-04T10:43:45.857Z,977.68
2022-08-04T10:44:45.787Z,977.72
2022-08-04T10:45:45.718Z,977.73
2022-08-04T10:46:45.645Z,977.70
2022-08-04T10:47:45.577Z,977.71
2022-08-04T10:48:45.509Z,977.65
2022-08-04T10:49:45.440Z,977.67
2022-08-04T10:50:45.370Z,977.71
2022-08-04T10:51:58.607Z,977.71
2022-08-04T10:52:45.233Z,977.69
2022-08-04T10:53:45.162Z,977.68
2022-08-04T10:54:45.095Z,977.68
2022-08-04T10:56:07.110Z,977.74
2022-08-04T10:56:44.955Z,977.68
2022-08-04T10:57:44.885Z,977.70
2022-08-04T10:58:47.946Z,977.73
2022-08-04T10:59:44.751Z,977.67
2022-08-04T11:00:44.676Z,977.65
2022-08-04T11:01:50.834Z,977.65
2022-08-04T11:02:44.577Z,977.62
2022-08-04T11:03:44.475Z,977.61
2022-08-04T11:04:44.407Z,977.61
2022-08-04T11:05:44.738Z,977.57
2022-08-04T11:06:44.266Z,977.59
2022-08-04T11:07:44.205Z,977.59
2022-08-04T11:08:44.135Z,977.61
2022-08-04T11:09:44.055Z,977.66
2022-08-04T11:10:43.988Z,977.60
2022-08-04T11:11:57.105Z,977.61
2022-08-04T11:12:43.849Z,977.57
2022-08-04T11:13:46.952Z,977.61
2022-08-04T11:14:43.707Z,977.57
2022-08-04T11:15:43.648Z,977.58
2022-08-04T11:16:43.571Z,977.56
2022-08-04T11:17:43.506Z,977.56
2022-08-04T11:18:43.436Z,977.60
2022-08-04T11:19:46.334Z,977.58
2022-08-04T11:20:43.297Z,977.56
2022-08-04T11:21:43.225Z,977.61
2022-08-04T11:22:43.162Z,977.61
2022-08-04T11:23:43.090Z,977.61
2022-08-04T11:24:43.028Z,977.60
2022-08-04T11:25:42.949Z,977.59
2022-08-04T11:26:42.918Z,977.59
2022-08-04T11:27:42.818Z,977.53
2022-08-04T11:28:42.749Z,977.57
2022-08-04T11:29:42.693Z,977.57
2022-08-04T11:30:42.609Z,977.59
2022-08-04T11:31:42.548Z,977.54
2022-08-04T11:32:42.490Z,977.56
2022-08-04T11:33:42.460Z,977.53
2022-08-04T11:34:42.338Z,977.53
2022-08-04T11:35:42.269Z,977.52
2022-08-04T11:36:42.196Z,977.51
2022-08-04T11:37:42.134Z,977.55
2022-08-04T11:38:42.066Z,977.51
2022-08-04T11:39:42.037Z,977.51
2022-08-04T11:40:41.924Z,977.51
2022-08-04T11:41:41.858Z,977.51
2022-08-04T11:42:41.790Z,977.47
2022-08-04T11:44:00.934Z,977.48
2022-08-04T11:44:41.654Z,977.48
2022-08-04T11:45:41.584Z,977.48
2022-08-04T11:46:41.512Z,977.48
2022-08-04T11:47:41.459Z,977.42
2022-08-04T11:48:41.379Z,977.38
2022-08-04T11:49:57.494Z,977.47
2022-08-04T11:50:41.239Z,977.43
2022-08-04T11:51:41.167Z,977.41
2022-08-04T11:52:41.119Z,977.43
2022-08-04T11:53:41.034Z,977.45
2022-08-04T11:54:40.967Z,977.42
2022-08-04T11:56:07.779Z,977.43
2022-08-04T11:56:40.834Z,977.44
2022-08-04T11:57:40.762Z,977.41
2022-08-04T11:58:40.701Z,977.43
2022-08-04T11:59:40.627Z,977.41
2022-08-04T12:00:40.559Z,977.39
2022-08-04T12:01:40.489Z,977.42
2022-08-04T12:02:40.517Z,977.43
2022-08-04T12:03:40.356Z,977.36
2022-08-04T12:04:40.287Z,977.38
2022-08-04T12:05:40.213Z,977.39
2022-08-04T12:06:40.164Z,977.36
2022-08-04T12:07:41.762Z,977.31
2022-08-04T12:08:40.017Z,977.33
2022-08-04T12:09:39.944Z,977.27
2022-08-04T12:10:41.997Z,977.26
2022-08-04T12:11:39.807Z,977.18
2022-08-04T12:12:39.740Z,977.25
2022-08-04T12:13:39.670Z,977.24
2022-08-04T12:14:39.610Z,977.28
2022-08-04T12:15:39.532Z,977.31
2022-08-04T12:16:39.472Z,977.31
2022-08-04T12:17:52.444Z,977.34
2022-08-04T12:18:39.333Z,977.27
2022-08-04T12:20:03.386Z,977.30
2022-08-04T12:20:41.194Z,977.27
2022-08-04T12:21:39.129Z,977.26
2022-08-04T12:22:41.052Z,977.27
2022-08-04T12:23:39.000Z,977.26
2022-08-04T12:24:38.933Z,977.27
2022-08-04T12:25:41.981Z,977.27
2022-08-04T12:26:38.791Z,977.23
2022-08-04T12:27:38.730Z,977.20
2022-08-04T12:29:08.090Z,977.20
2022-08-04T12:29:38.589Z,977.20
2022-08-04T12:30:58.558Z,977.19
2022-08-04T12:31:38.452Z,977.19